createdAt,value
2022-12-12T00:00:47.178Z,97644.46
2022-12-12T00:03:25.949Z,97643.52
2022-12-12T00:05:55.552Z,97638.42
2022-12-12T00:08:23.401Z,97636.86
2022-12-12T00:10:51.502Z,97639.04
2022-12-12T00:13:19.263Z,97638.58
2022-12-12T00:15:47.036Z,97634.03
2022-12-12T00:18:14.839Z,97633.52
2022-12-12T00:20:42.522Z,97634.38
2022-12-12T00:23:10.217Z,97630.95
2022-12-12T00:25:38.160Z,97626.45
2022-12-12T00:28:05.988Z,97628.27
2022-12-12T00:30:33.801Z,97627.48
2022-12-12T00:33:01.643Z,97622.77
2022-12-12T00:35:29.404Z,97624.98
2022-12-12T00:37:59.764Z,97624.50
2022-12-12T00:40:27.446Z,97624.09
2022-12-12T00:42:55.154Z,97625.48
2022-12-12T00:45:22.888Z,97628.59
2022-12-12T00:47:50.637Z,97628.71
2022-12-12T00:50:18.655Z,97630.63
2022-12-12T00:52:46.362Z,97626.37
2022-12-12T00:55:15.090Z,97621.55
2022-12-12T00:57:43.061Z,97621.39
2022-12-12T01:00:13.979Z,97624.08
2022-12-12T01:02:41.970Z,97624.23
2022-12-12T01:05:10.843Z,97624.91
2022-12-12T01:07:40.065Z,97622.35
2022-12-12T01:10:09.490Z,97621.97
2022-12-12T01:12:37.245Z,97619.94
2022-12-12T01:15:07.252Z,97622.57
2022-12-12T01:17:37.845Z,97619.14
2022-12-12T01:20:08.897Z,97621.20
2022-12-12T01:22:37.507Z,97615.04
2022-12-12T01:25:05.334Z,97611.83
2022-12-12T01:27:33.177Z,97608.85
2022-12-12T01:30:02.562Z,97606.14
2022-12-12T01:32:30.317Z,97603.96
2022-12-12T01:34:58.287Z,97607.02
2022-12-12T01:37:26.127Z,97606.59
2022-12-12T01:39:53.841Z,97606.72
2022-12-12T01:42:21.661Z,97611.86
2022-12-12T01:44:52.242Z,97609.36
2022-12-12T01:47:22.096Z,97611.41
2022-12-12T01:49:54.809Z,97615.67
2022-12-12T01:52:29.232Z,97616.75
2022-12-12T01:54:59.539Z,97612.96
2022-12-12T01:57:34.545Z,97613.38
2022-12-12T02:00:07.489Z,97614.36
2022-12-12T02:02:36.113Z,97608.52
2022-12-12T02:05:09.805Z,97611.58
2022-12-12T02:07:37.655Z,97611.44
2022-12-12T02:10:06.044Z,97606.85
2022-12-12T02:12:33.763Z,97611.64
2022-12-12T02:15:02.178Z,97610.72
2022-12-12T02:17:56.678Z,97610.08
2022-12-12T02:20:33.735Z,97610.48
2022-12-12T02:23:17.639Z,97609.44
2022-12-12T02:26:15.508Z,97610.75
2022-12-12T02:29:07.250Z,97606.11
2022-12-12T02:31:45.404Z,97606.48
2022-12-12T02:35:09.643Z,97607.55
2022-12-12T02:37:45.057Z,97601.92
2022-12-12T02:40:34.217Z,97606.27
2022-12-12T02:43:19.990Z,97602.05
2022-12-12T02:45:51.483Z,97603.32
2022-12-12T02:48:24.898Z,97609.77
2022-12-12T02:50:54.858Z,97613.31
2022-12-12T02:53:23.980Z,97611.02
2022-12-12T02:56:03.294Z,97606.34
2022-12-12T02:58:31.809Z,97602.35
2022-12-12T03:01:25.178Z,97604.52
2022-12-12T03:04:21.104Z,97600.13
2022-12-12T03:07:22.072Z,97599.13
2022-12-12T03:10:05.057Z,97598.09
2022-12-12T03:12:42.912Z,97598.36
2022-12-12T03:15:24.232Z,97595.64
2022-12-12T03:18:00.211Z,97595.21
2022-12-12T03:20:39.456Z,97594.84
2022-12-12T03:23:09.911Z,97590.69
2022-12-12T03:25:47.600Z,97596.08
2022-12-12T03:28:22.183Z,97602.20
2022-12-12T03:30:53.125Z,97596.61
2022-12-12T03:33:44.544Z,97601.06
2022-12-12T03:36:26.817Z,97600.73
2022-12-12T03:38:58.512Z,97597.29
2022-12-12T03:41:32.463Z,97594.01
2022-12-12T03:44:06.224Z,97590.67
2022-12-12T03:46:44.413Z,97590.38
2022-12-12T03:49:16.900Z,97595.08
2022-12-12T03:51:52.850Z,97590.28
2022-12-12T03:54:53.313Z,97593.27
2022-12-12T03:57:28.249Z,97589.84
2022-12-12T04:00:03.717Z,97585.54
2022-12-12T04:02:43.283Z,97585.27
2022-12-12T04:05:22.299Z,97585.48
2022-12-12T04:08:01.475Z,97585.48
2022-12-12T04:10:54.236Z,97579.27
2022-12-12T04:13:32.724Z,97581.40
2022-12-12T04:16:24.435Z,97580.08
2022-12-12T04:19:02.791Z,97571.95
2022-12-12T04:22:03.096Z,97578.24
2022-12-12T04:24:56.256Z,97574.80
2022-12-12T04:27:27.351Z,97577.08
2022-12-12T04:30:08.784Z,97571.59
2022-12-12T04:32:45.013Z,97571.94
2022-12-12T04:35:16.949Z,97569.94
2022-12-12T04:37:58.643Z,97573.27
2022-12-12T04:40:30.361Z,97571.43
2022-12-12T04:43:33.949Z,97573.16
2022-12-12T04:46:12.627Z,97572.91
2022-12-12T04:48:46.271Z,97574.61
2022-12-12T04:51:17.250Z,97574.14
2022-12-12T04:53:53.031Z,97562.92
2022-12-12T04:56:24.515Z,97577.23
2022-12-12T04:58:52.224Z,97574.17
2022-12-12T05:01:41.978Z,97571.49
2022-12-12T05:04:14.731Z,97575.30
2022-12-12T05:06:46.427Z,97574.28
2022-12-12T05:09:16.884Z,97575.59
2022-12-12T05:11:48.003Z,97573.98
2022-12-12T05:14:16.332Z,97578.66
2022-12-12T05:16:50.139Z,97577.19
2022-12-12T05:19:17.967Z,97573.00
2022-12-12T05:21:45.612Z,97569.30
2022-12-12T05:24:13.743Z,97568.38
2022-12-12T05:26:41.871Z,97567.41
2022-12-12T05:29:09.893Z,97568.06
2022-12-12T05:31:37.773Z,97569.30
2022-12-12T05:34:05.745Z,97566.71
2022-12-12T05:36:33.424Z,97564.80
2022-12-12T05:39:01.249Z,97565.91
2022-12-12T05:41:28.987Z,97569.38
2022-12-12T05:43:56.924Z,97565.52
2022-12-12T05:46:24.723Z,97567.35
2022-12-12T05:48:52.586Z,97566.61
2022-12-12T05:51:20.707Z,97571.61
2022-12-12T05:53:48.633Z,97570.95
2022-12-12T05:56:16.775Z,97569.38
2022-12-12T05:58:44.758Z,97571.95
2022-12-12T06:01:12.730Z,97573.00
2022-12-12T06:03:40.645Z,97570.84
2022-12-12T06:06:09.483Z,97569.02
2022-12-12T06:08:37.530Z,97565.10
2022-12-12T06:11:07.422Z,97567.66
2022-12-12T06:13:35.517Z,97566.06
2022-12-12T06:16:09.813Z,97573.80
2022-12-12T06:18:37.691Z,97576.58
2022-12-12T06:21:08.087Z,97575.52
2022-12-12T06:23:41.610Z,97575.26
2022-12-12T06:26:16.691Z,97574.77
2022-12-12T06:28:44.677Z,97579.05
2022-12-12T06:31:13.063Z,97578.83
2022-12-12T06:33:42.646Z,97580.32
2022-12-12T06:36:13.950Z,97580.96
2022-12-12T06:38:41.760Z,97580.39
2022-12-12T06:41:12.629Z,97581.57
2022-12-12T06:43:41.295Z,97580.09
2022-12-12T06:46:14.366Z,97581.70
2022-12-12T06:48:43.253Z,97581.56
2022-12-12T06:51:14.722Z,97577.20
2022-12-12T06:53:42.633Z,97578.41
2022-12-12T06:56:14.067Z,97576.94
2022-12-12T06:58:42.190Z,97581.21
2022-12-12T07:01:12.207Z,97583.49
2022-12-12T07:03:40.525Z,97585.64
2022-12-12T07:06:08.740Z,97585.59
2022-12-12T07:08:37.167Z,97585.94
2022-12-12T07:11:08.499Z,97589.50
2022-12-12T07:13:36.168Z,97591.48
2022-12-12T07:16:04.698Z,97592.59
2022-12-12T07:18:32.598Z,97596.05
2022-12-12T07:21:04.825Z,97593.12
2022-12-12T07:23:33.051Z,97600.34
2022-12-12T07:26:04.465Z,97597.73
2022-12-12T07:28:32.430Z,97600.52
2022-12-12T07:31:01.320Z,97597.88
2022-12-12T07:33:41.002Z,97592.12
2022-12-12T07:36:14.698Z,97582.63
2022-12-12T07:38:43.533Z,97591.15
2022-12-12T07:41:16.812Z,97596.40
2022-12-12T07:43:49.491Z,97596.30
2022-12-12T07:46:22.705Z,97595.22
2022-12-12T07:48:51.298Z,97595.95
2022-12-12T07:51:20.112Z,97603.33
2022-12-12T07:53:47.967Z,97602.52
2022-12-12T07:56:17.329Z,97605.16
2022-12-12T07:58:45.820Z,97607.46
2022-12-12T08:01:19.336Z,97604.31
2022-12-12T08:03:50.929Z,97608.83
2022-12-12T08:06:20.429Z,97610.60
2022-12-12T08:08:49.841Z,97614.59
2022-12-12T08:11:20.137Z,97615.44
2022-12-12T08:13:48.098Z,97612.34
2022-12-12T08:16:19.344Z,97613.73
2022-12-12T08:18:48.009Z,97614.43
2022-12-12T08:21:23.147Z,97618.02
2022-12-12T08:24:01.773Z,97612.30
2022-12-12T08:26:30.294Z,97613.85
2022-12-12T08:28:58.935Z,97620.98
2022-12-12T08:31:27.422Z,97626.08
2022-12-12T08:33:56.250Z,97625.27
2022-12-12T08:36:26.818Z,97623.09
2022-12-12T08:38:54.464Z,97623.83
2022-12-12T08:41:23.657Z,97626.39
2022-12-12T08:43:52.699Z,97630.48
2022-12-12T08:46:21.694Z,97627.27
2022-12-12T08:48:49.689Z,97629.25
2022-12-12T08:51:18.435Z,97628.55
2022-12-12T08:53:47.380Z,97629.09
2022-12-12T08:56:15.885Z,97628.40
2022-12-12T08:58:44.446Z,97632.33
2022-12-12T09:01:17.661Z,97635.99
2022-12-12T09:03:46.232Z,97634.33
2022-12-12T09:06:14.478Z,97632.42
2022-12-12T09:08:42.422Z,97633.60
2022-12-12T09:11:10.974Z,97635.48
2022-12-12T09:13:39.270Z,97637.37
2022-12-12T09:16:08.549Z,97631.05
2022-12-12T09:18:37.433Z,97633.08
2022-12-12T09:21:05.611Z,97632.41
2022-12-12T09:23:33.686Z,97627.33
2022-12-12T09:26:08.710Z,97625.45
2022-12-12T09:28:36.679Z,97628.82
2022-12-12T09:31:07.798Z,97629.00
2022-12-12T09:33:36.363Z,97627.96
2022-12-12T09:36:06.797Z,97628.83
2022-12-12T09:38:35.008Z,97626.39
2022-12-12T09:41:10.255Z,97630.80
2022-12-12T09:44:10.895Z,97627.02
2022-12-12T09:46:50.957Z,97628.11
2022-12-12T09:49:51.847Z,97628.94
2022-12-12T09:52:32.280Z,97625.09
2022-12-12T09:55:00.931Z,97624.48
2022-12-12T09:57:43.321Z,97624.66
2022-12-12T10:00:14.302Z,97623.30
2022-12-12T10:03:11.476Z,97628.23
2022-12-12T10:05:57.286Z,97625.71
2022-12-12T10:09:05.599Z,97629.08
2022-12-12T10:11:50.503Z,97624.17
2022-12-12T10:14:25.539Z,97624.90
2022-12-12T10:16:58.092Z,97619.19
2022-12-12T10:19:29.659Z,97628.04
2022-12-12T10:22:04.027Z,97629.55
2022-12-12T10:24:53.922Z,97636.39
2022-12-12T10:27:23.416Z,97632.20
2022-12-12T10:29:51.214Z,97632.84
2022-12-12T10:32:39.955Z,97632.65
2022-12-12T10:35:27.322Z,97629.52
2022-12-12T10:38:14.129Z,97625.69
2022-12-12T10:41:03.378Z,97625.33
2022-12-12T10:43:54.335Z,97625.52
2022-12-12T10:46:29.949Z,97628.35
2022-12-12T10:48:57.821Z,97630.15
2022-12-12T10:51:28.073Z,97628.75
2022-12-12T10:53:55.894Z,97628.77
2022-12-12T10:56:26.830Z,97627.77
2022-12-12T10:58:59.808Z,97624.91
2022-12-12T11:02:08.329Z,97626.38
2022-12-12T11:04:27.624Z,97629.84
2022-12-12T11:06:56.387Z,97632.64
2022-12-12T11:09:26.631Z,97627.65
2022-12-12T11:12:12.558Z,97631.21
2022-12-12T11:14:51.865Z,97631.05
2022-12-12T11:17:25.819Z,97625.15
2022-12-12T11:19:57.138Z,97628.52
2022-12-12T11:22:25.863Z,97629.61
2022-12-12T11:24:54.943Z,97626.31
2022-12-12T11:27:25.804Z,97628.30
2022-12-12T11:29:55.931Z,97630.48
2022-12-12T11:32:27.070Z,97636.27
2022-12-12T11:35:00.069Z,97635.61
2022-12-12T11:37:46.090Z,97632.73
2022-12-12T11:40:28.908Z,97629.71
2022-12-12T11:43:16.882Z,97632.88
2022-12-12T11:46:10.535Z,97639.44
2022-12-12T11:48:48.028Z,97644.40
2022-12-12T11:51:42.009Z,97644.13
2022-12-12T11:54:20.264Z,97642.02
2022-12-12T11:56:57.937Z,97646.41
2022-12-12T11:59:44.540Z,97645.27
2022-12-12T12:02:31.144Z,97646.78
2022-12-12T12:05:24.042Z,97644.02
2022-12-12T12:07:58.057Z,97646.64
2022-12-12T12:10:51.221Z,97642.81
2022-12-12T12:13:49.927Z,97646.04
2022-12-12T12:16:17.668Z,97643.29
2022-12-12T12:19:01.718Z,97646.64
2022-12-12T12:21:38.224Z,97649.40
2022-12-12T12:24:25.014Z,97647.77
2022-12-12T12:27:01.925Z,97650.83
2022-12-12T12:29:51.997Z,97652.52
2022-12-12T12:32:29.239Z,97652.59
2022-12-12T12:35:06.260Z,97651.66
2022-12-12T12:37:42.918Z,97649.04
2022-12-12T12:40:20.010Z,97651.57
2022-12-12T12:43:10.912Z,97652.65
2022-12-12T12:45:45.800Z,97657.77
2022-12-12T12:48:32.852Z,97656.41
2022-12-12T12:51:28.874Z,97657.36
2022-12-12T12:54:13.794Z,97654.17
2022-12-12T12:56:49.338Z,97655.38
2022-12-12T12:59:21.358Z,97654.23
2022-12-12T13:01:51.035Z,97656.27
2022-12-12T13:04:25.373Z,97659.95
2022-12-12T13:07:00.630Z,97657.89
2022-12-12T13:09:43.526Z,97664.04
2022-12-12T13:12:30.285Z,97665.33
2022-12-12T13:15:04.493Z,97660.04
2022-12-12T13:17:43.617Z,97662.71
2022-12-12T13:20:18.964Z,97665.52
2022-12-12T13:22:47.002Z,97666.36
2022-12-12T13:25:22.911Z,97673.48
2022-12-12T13:27:52.976Z,97671.09
2022-12-12T13:30:27.348Z,97674.61
2022-12-12T13:33:07.427Z,97678.67
2022-12-12T13:35:38.850Z,97691.36
2022-12-12T13:38:17.713Z,97692.34
2022-12-12T13:40:46.860Z,97691.70
2022-12-12T13:43:40.575Z,97693.67
2022-12-12T13:46:20.979Z,97700.43
2022-12-12T13:48:56.297Z,97697.33
2022-12-12T13:51:36.419Z,97702.36
2022-12-12T13:54:12.038Z,97701.42
2022-12-12T13:56:46.672Z,97704.39
2022-12-12T13:59:23.648Z,97703.63
2022-12-12T14:02:01.333Z,97706.60
2022-12-12T14:04:34.337Z,97708.31
2022-12-12T14:07:02.732Z,97711.45
2022-12-12T14:09:47.765Z,97716.16
2022-12-12T14:12:30.698Z,97714.29
2022-12-12T14:15:04.310Z,97712.26
2022-12-12T14:17:41.716Z,97715.84
2022-12-12T14:20:27.348Z,97717.54
2022-12-12T14:22:55.008Z,97717.81
2022-12-12T14:25:37.233Z,97718.84
2022-12-12T14:28:24.894Z,97720.70
2022-12-12T14:31:16.044Z,97724.55
2022-12-12T14:33:52.685Z,97723.55
2022-12-12T14:36:43.038Z,97729.45
2022-12-12T14:39:56.448Z,97727.10
2022-12-12T14:43:20.626Z,97726.98
2022-12-12T14:45:50.814Z,97731.39
2022-12-12T14:48:26.500Z,97730.05
2022-12-12T14:50:54.345Z,97739.14
2022-12-12T14:53:30.800Z,97735.46
2022-12-12T14:56:06.922Z,97743.34
2022-12-12T14:58:37.203Z,97742.61
2022-12-12T15:01:05.997Z,97745.80
2022-12-12T15:03:44.731Z,97746.23
2022-12-12T15:06:29.325Z,97751.04
2022-12-12T15:09:44.979Z,97752.75
2022-12-12T15:12:20.614Z,97756.39
2022-12-12T15:14:49.516Z,97752.19
2022-12-12T15:17:23.483Z,97759.30
2022-12-12T15:19:54.896Z,97756.41
2022-12-12T15:22:33.911Z,97754.39
2022-12-12T15:25:17.712Z,97758.86
2022-12-12T15:27:55.016Z,97757.20
2022-12-12T15:30:45.590Z,97759.73
2022-12-12T15:33:17.431Z,97763.05
2022-12-12T15:36:01.886Z,97766.02
2022-12-12T15:38:32.124Z,97764.98
2022-12-12T15:41:03.853Z,97766.52
2022-12-12T15:43:33.311Z,97768.88
2022-12-12T15:46:14.496Z,97770.60
2022-12-12T15:48:44.273Z,97773.25
2022-12-12T15:51:13.310Z,97772.48
2022-12-12T15:53:47.380Z,97776.14
2022-12-12T15:56:21.377Z,97773.16
2022-12-12T15:58:55.148Z,97775.10
2022-12-12T16:01:28.402Z,97771.46
2022-12-12T16:04:00.449Z,97776.49
2022-12-12T16:06:46.021Z,97775.55
2022-12-12T16:09:22.724Z,97778.55
2022-12-12T16:11:56.081Z,97778.42
2022-12-12T16:14:40.208Z,97782.42
2022-12-12T16:17:24.022Z,97785.52
2022-12-12T16:19:56.271Z,97784.52
2022-12-12T16:22:59.580Z,97785.71
2022-12-12T16:25:29.451Z,97790.62
2022-12-12T16:28:05.761Z,97789.14
2022-12-12T16:30:34.009Z,97789.46
2022-12-12T16:33:36.930Z,97790.88
2022-12-12T16:36:13.207Z,97794.14
2022-12-12T16:38:42.270Z,97799.20
2022-12-12T16:41:15.821Z,97800.91
2022-12-12T16:43:45.135Z,97801.45
2022-12-12T16:46:24.751Z,97802.13
2022-12-12T16:48:53.571Z,97808.29
2022-12-12T16:51:30.961Z,97811.20
2022-12-12T16:53:58.917Z,97809.78
2022-12-12T16:56:27.330Z,97816.69
2022-12-12T16:58:56.306Z,97816.57
2022-12-12T17:01:24.288Z,97820.59
2022-12-12T17:03:52.545Z,97824.77
2022-12-12T17:06:20.543Z,97828.22
2022-12-12T17:08:48.448Z,97829.11
2022-12-12T17:11:17.906Z,97832.43
2022-12-12T17:13:50.196Z,97830.30
2022-12-12T17:16:25.846Z,97832.23
2022-12-12T17:18:55.832Z,97834.19
2022-12-12T17:21:24.044Z,97838.63
2022-12-12T17:23:52.784Z,97845.00
2022-12-12T17:26:20.822Z,97844.99
2022-12-12T17:28:48.788Z,97845.20
2022-12-12T17:31:19.394Z,97842.88
2022-12-12T17:33:51.072Z,97846.38
2022-12-12T17:36:20.116Z,97848.35
2022-12-12T17:38:49.281Z,97848.60
2022-12-12T17:41:17.394Z,97849.80
2022-12-12T17:43:49.347Z,97856.84
2022-12-12T17:46:20.392Z,97859.20
2022-12-12T17:48:48.994Z,97857.41
2022-12-12T17:51:22.196Z,97863.95
2022-12-12T17:53:52.667Z,97868.19
2022-12-12T17:56:23.394Z,97867.92
2022-12-12T17:58:52.532Z,97868.52
2022-12-12T18:01:24.380Z,97865.40
2022-12-12T18:03:53.112Z,97869.23
2022-12-12T18:06:22.861Z,97870.01
2022-12-12T18:08:53.306Z,97865.29
2022-12-12T18:11:24.862Z,97871.47
2022-12-12T18:13:55.210Z,97867.98
2022-12-12T18:16:24.746Z,97866.68
2022-12-12T18:18:53.503Z,97868.02
2022-12-12T18:24:15.565Z,97870.52
2022-12-12T18:26:43.860Z,97872.39
2022-12-12T18:29:13.524Z,97871.47
2022-12-12T18:31:41.595Z,97877.26
2022-12-12T18:34:09.548Z,97877.87
2022-12-12T18:36:37.520Z,97883.52
2022-12-12T18:39:08.260Z,97889.61
2022-12-12T18:41:36.845Z,97890.72
2022-12-12T18:44:07.295Z,97895.17
2022-12-12T18:46:41.969Z,97897.73
2022-12-12T18:49:15.274Z,97902.44
2022-12-12T18:51:47.146Z,97909.39
2022-12-12T18:54:16.408Z,97908.41
2022-12-12T18:56:46.552Z,97910.36
2022-12-12T18:59:15.560Z,97915.92
2022-12-12T19:01:44.130Z,97919.77
2022-12-12T19:04:17.736Z,97920.52
2022-12-12T19:06:49.591Z,97927.41
2022-12-12T19:09:19.562Z,97926.13
2022-12-12T19:11:48.249Z,97927.06
2022-12-12T19:14:17.135Z,97932.54
2022-12-12T19:16:45.337Z,97935.11
2022-12-12T19:19:13.899Z,97933.15
2022-12-12T19:21:42.824Z,97934.90
2022-12-12T19:24:12.509Z,97935.17
2022-12-12T19:26:43.863Z,97940.02
2022-12-12T19:29:15.150Z,97939.08
2022-12-12T19:31:43.756Z,97945.58
2022-12-12T19:34:13.301Z,97948.02
2022-12-12T19:36:43.150Z,97954.98
2022-12-12T19:39:12.027Z,97959.54
2022-12-12T19:41:41.241Z,97955.34
2022-12-12T19:44:12.941Z,97966.61
2022-12-12T19:46:43.264Z,97969.17
2022-12-12T19:49:13.028Z,97971.27
2022-12-12T19:51:44.886Z,97974.30
2022-12-12T19:54:21.116Z,97975.50
2022-12-12T19:56:49.268Z,97977.23
2022-12-12T19:59:19.437Z,97978.39
2022-12-12T20:01:47.595Z,97983.61
2022-12-12T20:04:18.242Z,97981.56
2022-12-12T20:06:47.664Z,97985.07
2022-12-12T20:09:26.846Z,97978.89
2022-12-12T20:11:56.813Z,97981.23
2022-12-12T20:14:27.336Z,97982.52
2022-12-12T20:16:56.152Z,97986.98
2022-12-12T20:19:27.099Z,97991.14
2022-12-12T20:22:01.366Z,97999.67
2022-12-12T20:24:32.754Z,97998.12
2022-12-12T20:27:03.667Z,97998.19
2022-12-12T20:29:34.639Z,98003.44
2022-12-12T20:32:03.315Z,98009.06
2022-12-12T20:34:31.493Z,98004.67
2022-12-12T20:36:59.764Z,98010.61
2022-12-12T20:39:28.119Z,98015.21
2022-12-12T20:41:57.715Z,98013.27
2022-12-12T20:44:26.192Z,98014.20
2022-12-12T20:46:54.269Z,98018.30
2022-12-12T20:49:24.156Z,98019.96
2022-12-12T20:51:55.975Z,98026.31
2022-12-12T20:54:27.460Z,98027.20
2022-12-12T20:56:56.744Z,98034.25
2022-12-12T20:59:25.746Z,98036.21
2022-12-12T21:01:54.352Z,98042.75
2022-12-12T21:04:24.273Z,98043.44
2022-12-12T21:06:52.661Z,98045.39
2022-12-12T21:09:24.920Z,98045.26
2022-12-12T21:11:55.864Z,98050.91
2022-12-12T21:14:25.665Z,98052.79
2022-12-12T21:16:54.792Z,98056.05
2022-12-12T21:19:23.700Z,98052.78
2022-12-12T21:21:52.744Z,98057.83
2022-12-12T21:24:21.291Z,98061.50
2022-12-12T21:26:51.050Z,98057.66
2022-12-12T21:29:19.392Z,98059.99
2022-12-12T21:31:51.411Z,98057.83
2022-12-12T21:34:22.041Z,98063.83
2022-12-12T21:36:54.718Z,98065.05
2022-12-12T21:39:25.033Z,98066.36
2022-12-12T21:41:53.439Z,98066.58
2022-12-12T21:44:21.946Z,98071.58
2022-12-12T21:46:50.252Z,98071.41
2022-12-12T21:49:27.938Z,98074.14
2022-12-12T21:52:01.068Z,98074.11
2022-12-12T21:54:29.890Z,98071.36
2022-12-12T21:57:00.033Z,98071.46
2022-12-12T21:59:29.075Z,98073.48
2022-12-12T22:01:58.694Z,98071.30
2022-12-12T22:04:26.886Z,98076.01
2022-12-12T22:06:55.295Z,98079.48
2022-12-12T22:09:23.946Z,98078.02
2022-12-12T22:12:04.017Z,98081.21
2022-12-12T22:14:34.729Z,98082.43
2022-12-12T22:17:04.258Z,98085.52
2022-12-12T22:19:32.373Z,98082.09
2022-12-12T22:22:00.281Z,98089.95
2022-12-12T22:24:30.195Z,98099.23
2022-12-12T22:26:58.630Z,98097.98
2022-12-12T22:29:26.631Z,98101.52
2022-12-12T22:31:54.638Z,98106.55
2022-12-12T22:34:24.483Z,98106.86
2022-12-12T22:36:52.951Z,98109.58
2022-12-12T22:39:23.834Z,98116.63
2022-12-12T22:41:52.510Z,98121.90
2022-12-12T22:44:22.431Z,98122.63
2022-12-12T22:46:51.927Z,98125.52
2022-12-12T22:49:25.519Z,98124.85
2022-12-12T22:51:55.390Z,98131.66
2022-12-12T22:54:24.107Z,98129.90
2022-12-12T22:56:52.574Z,98132.80
2022-12-12T22:59:20.429Z,98132.80
2022-12-12T23:01:48.523Z,98138.14
2022-12-12T23:04:16.539Z,98143.70
2022-12-12T23:06:44.980Z,98143.83
2022-12-12T23:09:19.837Z,98147.92
2022-12-12T23:11:48.330Z,98154.60
2022-12-12T23:14:19.821Z,98156.59
2022-12-12T23:16:48.230Z,98158.20
2022-12-12T23:19:18.744Z,98159.58
2022-12-12T23:21:46.854Z,98160.02
2022-12-12T23:24:15.420Z,98161.81
2022-12-12T23:26:43.910Z,98158.30
2022-12-12T23:29:16.174Z,98162.19
2022-12-12T23:31:44.810Z,98164.02
2022-12-12T23:34:16.442Z,98162.45
2022-12-12T23:36:44.421Z,98166.65
2022-12-12T23:39:13.229Z,98161.80
2022-12-12T23:41:41.985Z,98163.05
2022-12-12T23:44:14.404Z,98165.20
2022-12-12T23:46:42.798Z,98170.05
2022-12-12T23:49:18.217Z,98164.75
2022-12-12T23:51:47.598Z,98168.48
2022-12-12T23:54:21.272Z,98165.14
2022-12-12T23:56:50.513Z,98163.50
2022-12-12T23:59:20.093Z,98164.70
